Time;durP1;ratioP1;P1;durP2;ratioP2;P2;SDS_P1;SDS_P2;PMS_P1;PMS_P2;Temp;Humidity;BMP_temperature;BMP_pressure;BME280_temperature;BME280_humidity;BME280_pressure;Samples;Min_cycle;Max_cycle;Signal;HPM_P1;HPM_P2
2022/05/25 00:00:40;;;;;;;45.97;41.37;;;;;;;18.18;100.00;99040.63;5016453;28;20178;-83
2022/05/25 00:03:06;;;;;;;45.83;41.43;;;;;;;18.92;100.00;99161.69;5052636;28;20185;-84
2022/05/25 00:05:32;;;;;;;44.47;40.20;;;;;;;18.57;100.00;99106.75;5062381;28;20169;-83
2022/05/25 00:07:59;;;;;;;44.53;40.07;;;;;;;18.22;100.00;99053.47;5040554;28;20698;-84
2022/05/25 00:10:24;;;;;;;43.20;39.10;;;;;;;18.12;100.00;99031.19;5038484;28;20219;-84
2022/05/25 00:12:50;;;;;;;43.50;39.13;;;;;;;18.83;100.00;99157.34;5036745;28;20328;-83
2022/05/25 00:15:16;;;;;;;43.17;38.93;;;;;;;18.56;100.00;99111.00;5034080;28;20174;-83
2022/05/25 00:17:41;;;;;;;43.03;37.17;;;;;;;19.06;100.00;99174.59;5034569;28;20273;-84
2022/05/25 00:20:09;;;;;;;41.67;37.20;;;;;;;19.08;100.00;99171.19;5034667;28;20643;-83
2022/05/25 00:22:40;;;;;;;42.33;37.87;;;;;;;18.81;100.00;99122.28;5035947;28;20274;-83
2022/05/25 00:25:07;;;;;;;41.43;37.00;;;;;;;19.07;100.00;99177.16;5021069;28;20202;-83
2022/05/25 00:27:32;;;;;;;39.63;35.73;;;;;;;18.65;100.00;99097.38;5016541;28;20182;-82
2022/05/25 00:29:58;;;;;;;39.23;35.57;;;;;;;19.19;100.00;99182.38;5015986;28;20557;-82
2022/05/25 00:32:24;;;;;;;40.23;36.13;;;;;;;18.34;100.00;99055.25;5015818;28;20166;-83
2022/05/25 00:34:50;;;;;;;41.13;36.93;;;;;;;19.17;100.00;99176.34;5015289;28;20562;-83
2022/05/25 00:37:15;;;;;;;39.37;35.47;;;;;;;18.85;100.00;99091.53;5015495;28;20209;-83
2022/05/25 00:39:41;;;;;;;37.50;33.80;;;;;;;19.48;100.00;99172.28;5014234;28;20177;-83
2022/05/25 00:42:07;;;;;;;37.23;33.63;;;;;;;19.45;100.00;99156.84;5014477;28;20175;-82
2022/05/25 00:44:32;;;;;;;37.43;33.53;;;;;;;19.61;100.00;99165.50;5013725;28;20175;-83
2022/05/25 00:46:58;;;;;;;36.73;32.93;;;;;;;19.54;100.00;99180.00;5021812;28;20181;-83
2022/05/25 00:49:28;;;;;;;37.10;33.13;;;;;;;18.85;100.00;99067.56;5037787;28;20174;-84
2022/05/25 00:52:01;;;;;;;36.90;33.20;;;;;;;18.83;100.00;99059.00;5038967;28;20224;-84
2022/05/25 00:54:30;;;;;;;36.60;32.80;;;;;;;19.70;100.00;99184.34;5037236;28;20669;-84
2022/05/25 00:57:01;;;;;;;34.43;31.13;;;;;;;18.39;100.00;98955.31;5039914;28;20228;-85
2022/05/25 00:59:31;;;;;;;34.20;30.73;;;;;;;19.65;100.00;99185.19;5042204;28;20200;-87
2022/05/25 01:01:57;;;;;;;34.47;31.07;;;;;;;18.89;100.00;99068.44;5041480;28;20197;-86
2022/05/25 01:04:24;;;;;;;32.87;29.47;;;;;;;18.52;100.00;99005.84;5040752;28;20216;-85
2022/05/25 01:07:17;;;;;;;32.13;28.60;;;;;;;19.59;100.00;99186.03;5036273;28;20162;-85
2022/05/25 01:10:00;;;;;;;30.70;27.53;;;;;;;18.74;100.00;99038.44;5036663;28;20252;-84
2022/05/25 01:12:41;;;;;;;30.40;27.37;;;;;;;19.58;100.00;99191.16;5045925;28;20669;-84
2022/05/25 01:15:33;;;;;;;30.33;27.23;;;;;;;19.55;100.00;99198.84;5055830;28;20180;-84
2022/05/25 01:18:09;;;;;;;30.13;27.10;;;;;;;19.05;100.00;99132.69;5057075;28;20750;-84
2022/05/25 01:20:55;;;;;;;31.33;27.97;;;;;;;19.43;100.00;99191.94;5057750;28;20165;-84
2022/05/25 01:23:48;;;;;;;31.00;27.77;;;;;;;19.51;100.00;99204.81;5056531;28;20538;-84
2022/05/25 01:26:46;;;;;;;31.77;28.67;;;;;;;19.37;100.00;99182.47;5056032;28;20162;-84
2022/05/25 01:29:30;;;;;;;31.43;28.33;;;;;;;19.32;100.00;99194.44;5056281;28;20238;-85
2022/05/25 01:32:04;;;;;;;30.80;27.80;;;;;;;19.42;100.00;99209.06;5038220;28;20180;-86
2022/05/25 01:34:55;;;;;;;30.63;27.67;;;;;;;18.90;100.00;99111.22;5046053;28;20181;-86
2022/05/25 01:37:41;;;;;;;29.97;26.77;;;;;;;18.64;100.00;99121.31;5042324;28;20198;-85
2022/05/25 01:40:16;;;;;;;30.13;27.03;;;;;;;19.20;100.00;99211.47;5039928;28;20185;-85
2022/05/25 01:43:09;;;;;;;29.53;26.60;;;;;;;16.65;100.00;98778.22;5038609;28;20175;-86
2022/05/25 01:45:41;;;;;;;29.80;25.70;;;;;;;18.13;100.00;99025.19;5038722;28;20198;-86
2022/05/25 01:48:10;;;;;;;34.40;30.77;;;;;;;17.22;100.00;98851.22;5036888;28;20178;-86
2022/05/25 01:50:42;;;;;;;33.43;29.87;;;;;;;18.14;100.00;98998.75;5038250;28;20174;-85
2022/05/25 01:53:12;;;;;;;37.10;32.67;;;;;;;18.15;100.00;99010.72;5040587;28;20166;-83
2022/05/25 01:55:50;;;;;;;37.93;33.50;;;;;;;18.54;100.00;99075.94;5038308;28;20185;-84
2022/05/25 01:58:18;;;;;;;35.27;31.63;;;;;;;18.69;100.00;99087.16;5023434;28;20170;-86
2022/05/25 02:00:50;;;;;;;36.47;32.07;;;;;;;19.11;100.00;99175.47;5038795;28;20174;-86
2022/05/25 02:06:10;;;;;;;30.13;26.93;;;;;;;19.40;100.00;99233.00;5054888;28;20263;-84
2022/05/25 02:08:47;;;;;;;28.43;25.37;;;;;;;19.19;100.00;99232.84;5040281;28;20598;-83
2022/05/25 02:11:26;;;;;;;25.00;22.33;;;;;;;19.04;100.00;99241.28;5048202;28;20204;-83
2022/05/25 02:14:03;;;;;;;25.80;22.33;;;;;;;18.46;100.00;99139.94;5053087;28;20244;-84
2022/05/25 02:16:53;;;;;;;27.20;21.10;;;;;;;19.05;100.00;99243.03;5033676;28;20229;-84
2022/05/25 02:19:50;;;;;;;23.40;20.37;;;;;;;19.06;100.00;99249.88;5034317;28;20174;-83
2022/05/25 02:22:46;;;;;;;22.93;20.60;;;;;;;18.67;100.00;99211.09;4935079;29;20194;-85
2022/05/25 02:25:19;;;;;;;19.10;17.10;;;;;;;18.80;100.00;99253.94;4934496;29;20208;-84
2022/05/25 02:27:55;;;;;;;19.13;15.97;;;;;;;18.69;100.00;99250.41;4934873;29;20296;-85
2022/05/25 02:30:24;;;;;;;15.03;12.93;;;;;;;18.65;100.00;99253.81;4937751;29;20647;-85
2022/05/25 02:32:56;;;;;;;13.87;11.73;;;;;;;18.53;100.00;99258.81;4940232;29;20713;-85
2022/05/25 02:35:23;;;;;;;12.70;10.77;;;;;;;18.47;100.00;99239.06;4938414;29;20213;-85
2022/05/25 02:37:52;;;;;;;14.03;11.07;;;;;;;18.46;100.00;99233.94;4939117;29;20276;-85
2022/05/25 02:40:17;;;;;;;16.33;11.13;;;;;;;18.80;100.00;99264.19;4939988;29;20202;-85
2022/05/25 02:42:44;;;;;;;18.20;11.77;;;;;;;18.11;100.00;99152.44;4938435;29;20182;-84
2022/05/25 02:45:11;;;;;;;15.43;11.70;;;;;;;18.40;100.00;99198.84;4923541;29;20178;-84
2022/05/25 02:47:37;;;;;;;17.87;12.40;;;;;;;18.59;100.00;99244.34;4938527;29;20261;-84
2022/05/25 02:50:03;;;;;;;15.87;12.50;;;;;;;18.77;100.00;99264.16;4937875;29;20209;-86
2022/05/25 02:52:28;;;;;;;16.40;12.80;;;;;;;18.86;100.00;99277.06;4939128;29;20279;-83
2022/05/25 02:54:54;;;;;;;16.17;13.13;;;;;;;18.88;100.00;99272.81;4943044;29;20205;-87
2022/05/25 02:57:19;;;;;;;16.80;13.67;;;;;;;18.82;100.00;99257.34;4946085;29;20637;-84
2022/05/25 02:59:46;;;;;;;16.33;13.17;;;;;;;19.09;100.00;99282.41;5022761;28;20194;-83
2022/05/25 03:02:12;;;;;;;15.17;12.50;;;;;;;19.09;100.00;99282.41;5029092;28;20202;-85
2022/05/25 03:04:40;;;;;;;17.20;13.23;;;;;;;19.17;100.00;99285.88;5039613;28;20168;-85
2022/05/25 03:07:06;;;;;;;19.03;13.30;;;;;;;18.52;100.00;99198.97;5037751;28;20167;-86
2022/05/25 03:09:34;;;;;;;18.00;13.50;;;;;;;19.04;100.00;99294.31;5036647;28;20170;-84
2022/05/25 03:12:02;;;;;;;18.83;14.80;;;;;;;18.29;100.00;99214.09;5037192;28;20220;-85
2022/05/25 03:14:28;;;;;;;19.77;14.40;;;;;;;18.61;100.00;99282.81;5036387;28;20185;-85
2022/05/25 03:16:54;;;;;;;19.73;14.63;;;;;;;17.83;100.00;99131.63;5037124;28;20292;-86
2022/05/25 03:19:19;;;;;;;23.37;16.03;;;;;;;18.36;100.00;99256.03;5037250;28;20182;-87
2022/05/25 03:21:45;;;;;;;25.13;17.10;;;;;;;17.01;100.00;98995.06;5037370;28;20300;-86
2022/05/25 03:24:10;;;;;;;24.30;16.50;;;;;;;17.69;100.00;99128.94;5038039;28;20541;-84
2022/05/25 03:26:37;;;;;;;18.60;13.57;;;;;;;18.51;100.00;99304.09;5040765;28;20182;-86
2022/05/25 03:29:02;;;;;;;18.77;13.47;;;;;;;18.40;100.00;99313.34;5038719;28;20162;-85
2022/05/25 03:31:27;;;;;;;17.80;12.63;;;;;;;18.36;100.00;99312.44;5025726;28;20176;-84
2022/05/25 03:33:53;;;;;;;17.03;12.43;;;;;;;17.55;100.00;99159.50;5041431;28;20249;-84
2022/05/25 03:36:18;;;;;;;15.67;10.83;;;;;;;18.62;100.00;99325.59;5036640;28;20193;-86
2022/05/25 03:38:44;;;;;;;18.10;11.50;;;;;;;18.74;100.00;99320.56;5037540;28;20210;-88
2022/05/25 03:41:09;;;;;;;18.03;11.83;;;;;;;18.55;100.00;99318.66;5036550;28;20166;-86
2022/05/25 03:43:37;;;;;;;18.37;11.67;;;;;;;18.52;100.00;99323.75;5038177;28;20166;-85
2022/05/25 03:46:04;;;;;;;21.43;11.77;;;;;;;18.17;100.00;99228.50;5037945;28;20189;-84
2022/05/25 03:48:29;;;;;;;20.20;12.67;;;;;;;17.60;100.00;99167.25;5038784;28;20196;-85
2022/05/25 03:50:55;;;;;;;21.07;12.20;;;;;;;18.35;100.00;99264.56;5022200;28;20181;-86
2022/05/25 03:53:21;;;;;;;23.50;12.73;;;;;;;18.38;100.00;99332.94;5036344;28;20166;-84
2022/05/25 03:55:47;;;;;;;21.73;12.53;;;;;;;18.06;100.00;99289.03;5035066;28;20168;-85
2022/05/25 03:58:13;;;;;;;23.60;12.73;;;;;;;18.05;100.00;99284.72;5035487;28;20197;-84
2022/05/25 04:00:39;;;;;;;26.93;12.97;;;;;;;18.38;100.00;99317.56;5034759;28;20174;-83
2022/05/25 04:03:05;;;;;;;30.67;13.47;;;;;;;18.03;100.00;99271.03;5016582;28;20181;-84
2022/05/25 04:05:32;;;;;;;24.90;13.47;;;;;;;18.17;100.00;99308.81;5034845;28;20253;-83
2022/05/25 04:07:58;;;;;;;25.43;12.90;;;;;;;18.35;100.00;99333.78;5034726;28;20193;-83
2022/05/25 04:10:25;;;;;;;28.83;14.20;;;;;;;18.24;100.00;99354.16;5035005;28;20510;-84
2022/05/25 04:12:51;;;;;;;25.73;13.73;;;;;;;18.09;100.00;99353.97;5017381;28;20230;-85
2022/05/25 04:15:20;;;;;;;26.17;13.83;;;;;;;17.65;100.00;99278.25;5038551;28;20170;-84
2022/05/25 04:17:45;;;;;;;28.53;13.47;;;;;;;17.99;100.00;99331.63;5037096;28;20202;-83
2022/05/25 04:20:12;;;;;;;28.23;13.97;;;;;;;16.29;100.00;99099.69;5034150;28;20189;-86
2022/05/25 04:22:38;;;;;;;31.17;14.77;;;;;;;17.97;100.00;99351.25;5002414;28;20238;-83
2022/05/25 04:25:07;;;;;;;28.97;14.27;;;;;;;17.77;100.00;99304.03;5010547;28;20669;-83
2022/05/25 04:27:34;;;;;;;28.20;14.43;;;;;;;17.96;100.00;99346.97;5012202;28;20285;-85
2022/05/25 04:29:59;;;;;;;23.30;14.03;;;;;;;18.13;100.00;99334.34;5011982;28;20190;-83
2022/05/25 04:32:25;;;;;;;27.73;13.63;;;;;;;18.18;100.00;99340.44;5012135;28;20188;-81
2022/05/25 04:34:50;;;;;;;22.77;12.90;;;;;;;18.46;100.00;99364.69;5013197;28;20195;-84
2022/05/25 04:40:00;;;;;;;18.33;12.10;;;;;;;18.97;100.00;99360.13;5010687;28;20248;-84
2022/05/25 04:42:29;;;;;;;23.03;12.60;;;;;;;19.02;100.00;99368.72;4975293;28;20194;-84
2022/05/25 04:44:59;;;;;;;23.87;12.37;;;;;;;18.84;100.00;99358.28;5008429;28;20630;-84
2022/05/25 04:47:27;;;;;;;23.20;11.60;;;;;;;19.10;100.00;99364.53;5012833;28;20186;-84
2022/05/25 04:49:52;;;;;;;17.67;11.67;;;;;;;18.65;100.00;99310.22;5011758;28;20190;-84
2022/05/25 04:52:17;;;;;;;21.97;12.60;;;;;;;19.02;100.00;99368.72;5010765;28;20192;-84
2022/05/25 04:54:43;;;;;;;19.10;13.03;;;;;;;18.65;100.00;99331.56;4997491;28;20227;-85
2022/05/25 04:57:20;;;;;;;20.97;13.17;;;;;;;18.85;100.00;99371.13;4990865;28;20206;-84
2022/05/25 04:59:48;;;;;;;24.20;13.67;;;;;;;18.62;100.00;99357.19;4990815;28;20178;-84
2022/05/25 05:02:13;;;;;;;21.00;13.57;;;;;;;17.92;100.00;99282.88;4973292;28;20202;-85
2022/05/25 05:04:39;;;;;;;23.83;13.00;;;;;;;18.37;100.00;99326.13;4972592;28;20183;-82
2022/05/25 05:07:05;;;;;;;19.10;12.97;;;;;;;18.81;100.00;99395.03;4991506;28;20191;-84
2022/05/25 05:09:35;;;;;;;17.90;12.93;;;;;;;18.87;100.00;99394.22;4992037;28;20176;-84
2022/05/25 05:12:01;;;;;;;22.80;12.33;;;;;;;18.85;100.00;99396.78;4992138;28;20191;-85
2022/05/25 05:14:27;;;;;;;21.47;13.43;;;;;;;18.41;100.00;99330.41;5021727;28;20334;-85
2022/05/25 05:16:57;;;;;;;21.03;13.17;;;;;;;18.00;100.00;99256.50;5033282;28;20216;-84
2022/05/25 05:19:24;;;;;;;22.50;13.53;;;;;;;18.56;100.00;99374.22;5037958;28;20193;-83
2022/05/25 05:21:51;;;;;;;18.40;13.50;;;;;;;18.58;100.00;99367.41;5050250;28;20299;-84
2022/05/25 05:24:16;;;;;;;18.87;13.83;;;;;;;18.85;100.00;99407.03;5010257;28;20241;-82
2022/05/25 05:26:42;;;;;;;21.33;13.67;;;;;;;18.91;100.00;99403.69;5028128;28;20185;-84
2022/05/25 05:29:07;;;;;;;19.77;13.80;;;;;;;18.97;100.00;99411.44;5030515;28;20276;-85
2022/05/25 05:31:34;;;;;;;20.07;13.87;;;;;;;17.96;100.00;99229.16;5046601;28;20276;-83
2022/05/25 05:34:00;;;;;;;17.57;13.43;;;;;;;18.55;98.32;99308.41;5037040;28;20233;-84
2022/05/25 05:36:30;;;;;;;19.67;13.67;;;;;;;19.04;98.18;99386.69;5036910;28;20240;-82
2022/05/25 05:39:03;;;;;;;19.87;13.50;;;;;;;19.08;99.47;99417.53;5050747;28;20710;-85
2022/05/25 05:41:37;;;;;;;18.43;14.07;;;;;;;17.97;100.00;99235.97;5049267;28;20189;-82
2022/05/25 05:44:03;;;;;;;21.30;14.30;;;;;;;18.59;99.64;99331.53;5045921;28;20185;-85
2022/05/25 05:46:29;;;;;;;21.27;13.97;;;;;;;18.21;98.43;99266.16;5046878;28;20200;-85
2022/05/25 05:48:55;;;;;;;18.50;12.20;;;;;;;19.32;97.29;99399.81;5050840;28;20208;-84
2022/05/25 05:51:21;;;;;;;17.77;13.17;;;;;;;19.19;97.54;99394.53;5048534;28;20654;-82
2022/05/25 05:53:49;;;;;;;19.87;13.63;;;;;;;19.31;97.18;99416.03;5040235;28;20183;-83
2022/05/25 05:56:15;;;;;;;18.73;12.53;;;;;;;18.51;96.99;99281.03;5010524;28;20224;-83
2022/05/25 05:58:41;;;;;;;18.37;12.47;;;;;;;19.42;96.98;99416.16;5046848;28;20638;-82
2022/05/25 06:01:06;;;;;;;18.13;12.63;;;;;;;19.55;94.26;99383.75;5046830;28;20246;-83
2022/05/25 06:03:32;;;;;;;19.37;12.27;;;;;;;19.84;92.99;99407.94;5045412;28;20657;-83
2022/05/25 06:05:57;;;;;;;22.40;12.60;;;;;;;19.02;92.21;99268.66;5009802;28;20193;-82
2022/05/25 06:08:27;;;;;;;21.20;12.13;;;;;;;19.77;92.36;99396.78;5010103;28;20610;-84
2022/05/25 06:10:54;;;;;;;18.20;12.63;;;;;;;19.85;92.89;99412.22;5009632;28;20212;-82
2022/05/25 06:13:20;;;;;;;20.20;13.27;;;;;;;19.10;93.06;99291.81;5009361;28;20230;-82
2022/05/25 06:21:20;;;;;;;21.53;13.87;;;;;;;19.22;96.92;99371.47;5010895;28;20406;-82
2022/05/25 06:23:46;;;;;;;23.50;13.83;;;;;;;19.29;95.73;99366.41;4998733;28;20265;-81
2022/05/25 06:26:11;;;;;;;22.33;14.43;;;;;;;20.02;92.82;99432.03;5010536;28;20575;-83
2022/05/25 06:28:37;;;;;;;19.87;13.73;;;;;;;19.80;93.33;99399.38;5010194;28;20405;-82
2022/05/25 06:31:02;;;;;;;23.80;14.23;;;;;;;19.93;93.83;99439.69;5009399;28;20620;-82
2022/05/25 06:33:28;;;;;;;17.90;13.50;;;;;;;20.30;91.96;99440.81;5014800;28;20185;-83
2022/05/25 06:35:53;;;;;;;23.00;14.33;;;;;;;20.60;90.04;99442.69;4997706;28;20291;-82
2022/05/25 06:38:18;;;;;;;24.47;14.10;;;;;;;20.74;89.15;99447.88;5011156;28;20606;-82
2022/05/25 06:40:44;;;;;;;25.43;14.13;;;;;;;19.26;89.12;99194.38;5011918;28;20198;-84
2022/05/25 06:43:09;;;;;;;22.80;14.63;;;;;;;21.01;87.64;99453.94;5011662;28;20174;-83
2022/05/25 06:45:35;;;;;;;23.70;15.00;;;;;;;20.92;88.38;99458.22;5011819;28;20624;-83
2022/05/25 06:48:04;;;;;;;23.93;14.40;;;;;;;21.13;86.96;99450.59;5011869;28;20253;-83
2022/05/25 06:50:29;;;;;;;26.37;14.80;;;;;;;21.28;85.74;99435.19;5012373;28;20658;-84
2022/05/25 06:52:55;;;;;;;25.03;14.90;;;;;;;20.84;85.75;99357.84;5012901;28;20166;-83
2022/05/25 06:55:21;;;;;;;28.30;16.30;;;;;;;21.26;87.04;99457.47;5013441;28;20272;-82
2022/05/25 06:57:46;;;;;;;25.97;15.17;;;;;;;20.83;90.53;99461.63;4995275;28;20206;-83
2022/05/25 07:00:12;;;;;;;24.50;15.93;;;;;;;20.90;90.86;99465.09;5012365;28;20170;-83
2022/05/25 07:02:37;;;;;;;29.87;16.77;;;;;;;20.89;90.64;99438.50;5012606;28;20661;-83
2022/05/25 07:05:04;;;;;;;26.87;16.17;;;;;;;20.85;88.83;99387.84;5013092;28;20163;-83
2022/05/25 07:07:31;;;;;;;25.17;15.87;;;;;;;21.53;86.38;99448.94;5015751;28;20627;-84
2022/05/25 07:09:57;;;;;;;29.03;16.33;;;;;;;20.71;88.24;99347.53;5014035;28;20167;-86
2022/05/25 07:12:23;;;;;;;27.23;15.97;;;;;;;19.27;89.02;99129.38;4997579;28;20268;-84
2022/05/25 07:14:49;;;;;;;27.47;16.67;;;;;;;19.50;87.02;99121.81;5031394;28;20312;-82
2022/05/25 07:17:14;;;;;;;25.37;15.37;;;;;;;20.56;84.59;99227.44;5035445;28;20657;-88
2022/05/25 07:19:40;;;;;;;26.50;15.83;;;;;;;20.87;81.96;99215.44;5040172;28;20182;-89
2022/05/25 07:22:10;;;;;;;26.70;16.13;;;;;;;19.99;80.08;99092.81;5037248;28;20202;-87
2022/05/25 07:24:36;;;;;;;28.23;16.73;;;;;;;22.53;79.29;99464.28;5018462;28;20177;-85
2022/05/25 07:27:01;;;;;;;26.93;16.13;;;;;;;20.76;80.63;99205.16;5035332;28;20170;-85
2022/05/25 07:29:26;;;;;;;23.57;16.57;;;;;;;21.60;81.03;99371.63;5034968;28;20689;-84
2022/05/25 07:32:01;;;;;;;28.10;16.70;;;;;;;20.10;79.39;99090.25;5017192;28;20265;-84
2022/05/25 07:34:30;;;;;;;28.70;16.57;;;;;;;22.74;77.07;99465.09;5034847;28;20200;-84
2022/05/25 07:37:00;;;;;;;30.67;16.83;;;;;;;21.13;77.53;99222.31;5034458;28;20212;-83
2022/05/25 07:39:32;;;;;;;27.13;15.67;;;;;;;21.88;77.53;99357.03;5014314;28;20171;-83
2022/05/25 07:42:00;;;;;;;26.40;16.00;;;;;;;22.01;78.84;99391.34;5014349;28;20177;-84
2022/05/25 07:44:46;;;;;;;24.93;16.13;;;;;;;22.03;77.62;99366.44;5020471;28;20301;-84
2022/05/25 07:47:13;;;;;;;26.40;16.07;;;;;;;22.51;78.77;99481.50;4982075;28;20210;-84
2022/05/25 07:49:38;;;;;;;25.57;15.37;;;;;;;22.75;77.13;99484.91;5014559;28;20691;-84
2022/05/25 07:52:04;;;;;;;27.53;15.30;;;;;;;21.66;76.76;99322.69;5029225;28;20198;-84
2022/05/25 07:54:31;;;;;;;23.40;14.87;;;;;;;20.88;77.06;99170.81;5033453;28;20190;-83
2022/05/25 07:56:56;;;;;;;27.33;14.87;;;;;;;23.12;74.97;99479.56;5029151;28;20210;-83
2022/05/25 07:59:22;;;;;;;26.83;15.57;;;;;;;22.46;74.57;99370.59;5010768;28;20196;-84
2022/05/25 08:07:56;;;;;;;24.90;14.50;;;;;;;23.66;70.97;99480.94;4910239;29;20242;-83
2022/05/25 08:10:24;;;;;;;23.57;14.43;;;;;;;22.50;73.06;99351.63;4928265;29;20272;-84
2022/05/25 08:12:53;;;;;;;24.07;14.93;;;;;;;23.28;72.87;99484.63;4941473;29;20233;-85
2022/05/25 08:15:19;;;;;;;24.63;14.70;;;;;;;23.04;72.02;99388.34;4938717;29;20201;-84
2022/05/25 08:17:44;;;;;;;21.27;13.77;;;;;;;22.96;69.69;99323.00;4947493;29;20300;-84
2022/05/25 08:20:10;;;;;;;25.57;15.20;;;;;;;22.63;70.40;99304.31;4946911;29;20197;-83
2022/05/25 08:22:39;;;;;;;20.03;14.10;;;;;;;23.94;69.16;99510.91;4955793;29;20201;-85
2022/05/25 08:25:07;;;;;;;18.70;14.17;;;;;;;23.51;70.91;99481.09;4954057;29;20188;-84
2022/05/25 08:27:33;;;;;;;20.07;14.43;;;;;;;23.75;68.88;99474.00;4943326;28;20245;-83
2022/05/25 08:29:58;;;;;;;21.23;14.30;;;;;;;24.19;68.08;99516.75;4934820;29;20616;-83
2022/05/25 08:32:24;;;;;;;21.53;14.37;;;;;;;23.10;68.77;99353.00;4934693;29;20185;-84
2022/05/25 08:34:50;;;;;;;22.37;13.87;;;;;;;23.59;70.38;99518.94;4934475;29;20757;-84
2022/05/25 08:37:15;;;;;;;20.20;13.73;;;;;;;23.13;70.99;99470.97;4934298;29;20213;-85
2022/05/25 08:39:41;;;;;;;21.37;13.47;;;;;;;23.79;69.25;99517.03;4934484;29;20256;-82
2022/05/25 08:42:14;;;;;;;19.83;13.70;;;;;;;23.91;68.32;99480.75;4982105;28;20664;-83
2022/05/25 08:44:42;;;;;;;21.00;14.30;;;;;;;24.44;66.49;99516.50;4994369;28;20278;-82
2022/05/25 08:47:10;;;;;;;23.13;12.90;;;;;;;24.13;67.01;99517.66;5002923;28;20261;-84
2022/05/25 08:49:38;;;;;;;20.27;13.37;;;;;;;23.59;68.40;99481.88;5016005;28;20182;-84
2022/05/25 08:52:15;;;;;;;21.20;12.47;;;;;;;23.48;69.62;99526.75;5016412;28;20253;-84
2022/05/25 08:54:41;;;;;;;21.90;13.03;;;;;;;23.77;68.57;99520.50;5015945;28;20167;-83
2022/05/25 08:57:20;;;;;;;21.40;12.60;;;;;;;23.43;67.80;99422.53;5016192;28;20203;-84
2022/05/25 08:59:58;;;;;;;19.30;12.80;;;;;;;24.50;65.46;99492.28;5015378;28;20166;-84
2022/05/25 09:03:02;;;;;;;18.47;12.07;;;;;;;23.78;62.95;99318.84;5015422;28;20237;-83
2022/05/25 09:05:34;;;;;;;18.93;12.80;;;;;;;24.64;62.83;99475.72;5015041;28;20178;-83
2022/05/25 09:08:29;;;;;;;19.30;13.90;;;;;;;24.58;65.08;99518.97;5015058;28;20171;-84
2022/05/25 09:11:17;;;;;;;17.90;13.40;;;;;;;24.41;65.97;99503.59;5015072;28;20189;-83
2022/05/25 09:13:53;;;;;;;17.63;13.40;;;;;;;24.88;63.69;99513.47;5029456;28;20713;-84
2022/05/25 09:16:22;;;;;;;19.47;13.20;;;;;;;24.55;65.54;99513.81;5034787;28;20196;-84
2022/05/25 09:19:05;;;;;;;21.13;13.53;;;;;;;24.71;63.87;99450.59;5017779;28;20569;-84
2022/05/25 09:21:39;;;;;;;19.50;13.20;;;;;;;25.72;61.00;99508.84;5034560;28;20177;-83
2022/05/25 09:24:11;;;;;;;16.93;12.83;;;;;;;25.69;60.79;99513.22;5034650;28;20162;-84
2022/05/25 09:26:36;;;;;;;20.10;13.00;;;;;;;25.88;59.50;99449.78;5034612;28;20236;-84
2022/05/25 09:29:07;;;;;;;18.65;13.00;;;;;;;25.59;59.34;99423.47;5034451;28;20171;-83
2022/05/25 09:31:40;;;;;;;20.15;13.88;;;;;;;25.50;59.79;99434.00;5033756;28;20189;-83
2022/05/25 09:34:10;;;;;;;20.70;14.60;;;;;;;26.08;59.12;99514.31;5016470;28;20715;-83
2022/05/25 09:36:47;;;;;;;22.75;16.10;;;;;;;25.79;60.73;99520.00;5033538;28;20199;-85
2022/05/25 09:39:13;;;;;;;24.05;17.30;;;;;;;25.82;60.21;99503.50;5033827;28;20190;-83
2022/05/25 09:41:41;;;;;;;21.40;15.00;;;;;;;25.69;59.73;99461.34;5016455;28;20649;-83
2022/05/25 09:44:10;;;;;;;24.10;15.25;;;;;;;25.06;61.67;99450.16;5034861;28;20173;-83
2022/05/25 09:46:41;;;;;;;26.33;16.60;;;;;;;25.03;60.06;99383.72;5035060;28;20228;-84
2022/05/25 09:49:12;;;;;;;26.80;17.60;;;;;;;25.68;59.80;99485.59;5017127;28;20174;-85
2022/05/25 09:51:44;;;;;;;23.50;16.60;;;;;;;25.38;59.95;99453.13;5017121;28;20704;-83
2022/05/25 09:54:16;;;;;;;29.77;18.30;;;;;;;25.42;61.04;99514.44;5034938;28;20285;-84
2022/05/25 09:56:58;;;;;;;27.77;19.03;;;;;;;25.02;60.72;99413.09;5033993;28;20198;-83
2022/05/25 09:59:36;;;;;;;27.47;19.90;;;;;;;26.05;59.27;99501.38;5034155;28;20174;-85
2022/05/25 10:02:23;;;;;;;32.70;20.60;;;;;;;26.17;57.38;99437.19;5034111;28;20179;-83
2022/05/25 10:04:52;;;;;;;30.05;19.50;;;;;;;26.42;57.38;99493.84;5034240;28;20648;-83
2022/05/25 10:07:25;;;;;;;27.08;20.25;;;;;;;26.36;58.37;99498.25;5033905;28;20164;-84
2022/05/25 10:09:52;;;;;;;28.98;20.02;;;;;;;25.90;57.91;99413.44;5033648;28;20175;-84
2022/05/25 10:12:28;;;;;;;30.33;21.17;;;;;;;26.71;57.50;99483.72;5015910;28;20306;-83
2022/05/25 10:14:58;;;;;;;26.42;18.92;;;;;;;26.65;57.22;99489.03;5015071;28;20173;-83
2022/05/25 10:17:33;;;;;;;27.15;19.10;;;;;;;26.71;57.39;99492.38;5031705;28;20208;-83
2022/05/25 10:19:58;;;;;;;27.45;19.45;;;;;;;26.31;56.44;99422.22;5014159;28;20238;-82
2022/05/25 10:22:46;;;;;;;30.30;19.77;;;;;;;26.11;58.60;99498.69;5031219;28;20164;-83
2022/05/25 10:25:25;;;;;;;29.02;20.98;;;;;;;26.31;58.12;99497.50;5031232;28;20160;-84
2022/05/25 10:27:51;;;;;;;26.58;20.25;;;;;;;26.17;58.42;99491.69;5031265;28;20664;-83
2022/05/25 10:37:05;;;;;;;32.63;21.85;;;;;;;26.93;56.46;99485.03;5031685;28;20295;-83
2022/05/25 10:39:45;;;;;;;31.45;21.40;;;;;;;27.30;55.53;99478.16;4951067;29;20658;-83
2022/05/25 10:42:26;;;;;;;29.30;21.40;;;;;;;27.41;55.15;99457.97;4951487;29;20274;-84
2022/05/25 10:45:15;;;;;;;31.15;20.90;;;;;;;27.46;54.78;99481.28;4951171;29;20175;-83
2022/05/25 10:47:52;;;;;;;30.30;21.15;;;;;;;27.25;55.73;99473.97;4951079;29;20194;-83
2022/05/25 10:50:46;;;;;;;32.90;21.42;;;;;;;27.77;53.61;99477.03;4951887;28;20838;-82
2022/05/25 10:53:39;;;;;;;28.92;20.77;;;;;;;27.83;53.60;99474.28;4954807;29;20231;-84
2022/05/25 10:56:34;;;;;;;27.55;21.60;;;;;;;27.67;53.60;99479.91;4954996;29;20173;-82
2022/05/25 10:59:12;;;;;;;30.17;21.73;;;;;;;27.43;54.52;99484.81;4942864;28;20246;-84
2022/05/25 11:01:53;;;;;;;28.65;21.80;;;;;;;27.62;54.53;99476.56;4956152;29;20351;-83
2022/05/25 11:04:56;;;;;;;31.77;23.73;;;;;;;26.92;55.28;99483.31;4954976;29;20256;-83
2022/05/25 11:07:24;;;;;;;33.63;23.77;;;;;;;27.02;56.38;99482.25;4916488;29;20197;-82
2022/05/25 11:09:49;;;;;;;30.02;21.65;;;;;;;27.39;53.92;99477.94;4916708;29;20253;-83
2022/05/25 11:12:31;;;;;;;33.80;23.17;;;;;;;27.50;53.35;99436.09;4908176;28;20235;-83
2022/05/25 11:15:41;;;;;;;33.80;23.05;;;;;;;27.96;52.60;99474.88;4993312;28;20176;-83
2022/05/25 11:18:46;;;;;;;33.00;22.08;;;;;;;28.18;51.98;99478.66;4934683;29;20602;-84
2022/05/25 11:21:28;;;;;;;34.28;23.77;;;;;;;28.36;51.88;99479.91;4935268;29;20202;-84
2022/05/25 11:24:36;;;;;;;35.92;23.55;;;;;;;27.73;53.64;99464.16;4933232;29;20195;-83
2022/05/25 11:27:21;;;;;;;31.88;22.92;;;;;;;27.83;52.17;99411.84;4913338;29;20239;-83
2022/05/25 11:29:55;;;;;;;31.15;24.23;;;;;;;27.76;53.36;99462.34;4916711;29;20315;-82
2022/05/25 11:32:44;;;;;;;36.58;24.83;;;;;;;26.49;55.59;99394.13;4913290;29;20197;-83
2022/05/25 11:35:17;;;;;;;36.50;25.70;;;;;;;26.29;57.96;99444.72;4897914;29;20200;-83
2022/05/25 11:38:01;;;;;;;35.10;25.38;;;;;;;26.69;57.33;99449.13;4914035;29;20223;-83
2022/05/25 11:40:46;;;;;;;35.63;25.15;;;;;;;27.94;53.35;99396.78;4913628;29;20198;-83
2022/05/25 11:43:30;;;;;;;33.60;25.00;;;;;;;29.17;50.84;99442.81;4913365;29;20646;-83
2022/05/25 11:46:07;;;;;;;30.55;23.17;;;;;;;29.74;48.37;99440.13;4924601;29;20804;-83
2022/05/25 11:48:35;;;;;;;31.98;23.83;;;;;;;29.37;48.86;99439.59;4931754;29;20206;-81
2022/05/25 11:51:31;;;;;;;34.20;25.27;;;;;;;29.17;48.90;99429.78;4932058;29;20280;-83
2022/05/25 11:54:09;;;;;;;35.95;25.17;;;;;;;28.40;51.68;99463.31;4948595;28;20202;-82
2022/05/25 11:56:41;;;;;;;33.17;25.52;;;;;;;27.87;53.85;99459.47;5011905;28;20213;-81